sensor_id;sensor_type;location;lat;lon;timestamp;P1;durP1;ratioP1;P2;durP2;ratioP2
22539;SDS011;11436;50.860;4.334;2022-10-31T00:00:55;13.85;;;7.30;;
22539;SDS011;11436;50.860;4.334;2022-10-31T00:03:21;20.10;;;7.55;;
22539;SDS011;11436;50.860;4.334;2022-10-31T00:05:47;14.48;;;7.70;;
22539;SDS011;11436;50.860;4.334;2022-10-31T00:08:14;14.43;;;7.13;;
22539;SDS011;11436;50.860;4.334;2022-10-31T00:10:41;14.40;;;7.40;;
22539;SDS011;11436;50.860;4.334;2022-10-31T00:13:09;14.15;;;7.43;;
22539;SDS011;11436;50.860;4.334;2022-10-31T00:15:36;16.27;;;8.48;;
22539;SDS011;11436;50.860;4.334;2022-10-31T00:18:03;19.60;;;8.93;;
22539;SDS011;11436;50.860;4.334;2022-10-31T00:20:30;13.27;;;7.55;;
22539;SDS011;11436;50.860;4.334;2022-10-31T00:22:59;17.08;;;9.50;;
22539;SDS011;11436;50.860;4.334;2022-10-31T00:25:26;13.15;;;6.95;;
22539;SDS011;11436;50.860;4.334;2022-10-31T00:27:52;19.80;;;8.88;;
22539;SDS011;11436;50.860;4.334;2022-10-31T00:30:18;17.52;;;8.65;;
22539;SDS011;11436;50.860;4.334;2022-10-31T00:32:44;18.92;;;7.63;;
22539;SDS011;11436;50.860;4.334;2022-10-31T00:35:09;17.73;;;7.75;;
22539;SDS011;11436;50.860;4.334;2022-10-31T00:37:35;16.55;;;7.63;;
22539;SDS011;11436;50.860;4.334;2022-10-31T00:40:01;17.88;;;8.15;;
22539;SDS011;11436;50.860;4.334;2022-10-31T00:42:27;14.38;;;7.90;;
22539;SDS011;11436;50.860;4.334;2022-10-31T00:44:52;12.57;;;7.38;;
22539;SDS011;11436;50.860;4.334;2022-10-31T00:47:18;20.20;;;8.13;;
22539;SDS011;11436;50.860;4.334;2022-10-31T00:49:44;15.57;;;8.18;;
22539;SDS011;11436;50.860;4.334;2022-10-31T00:52:09;21.58;;;9.38;;
22539;SDS011;11436;50.860;4.334;2022-10-31T00:54:35;16.75;;;7.72;;
22539;SDS011;11436;50.860;4.334;2022-10-31T00:57:01;18.67;;;8.35;;
22539;SDS011;11436;50.860;4.334;2022-10-31T00:59:26;15.38;;;7.40;;
22539;SDS011;11436;50.860;4.334;2022-10-31T01:01:52;22.38;;;8.45;;
22539;SDS011;11436;50.860;4.334;2022-10-31T01:04:18;17.77;;;8.93;;
22539;SDS011;11436;50.860;4.334;2022-10-31T01:06:44;18.30;;;8.38;;
22539;SDS011;11436;50.860;4.334;2022-10-31T01:09:09;18.30;;;7.32;;
22539;SDS011;11436;50.860;4.334;2022-10-31T01:11:35;14.25;;;7.47;;
22539;SDS011;11436;50.860;4.334;2022-10-31T01:14:01;16.60;;;7.90;;
22539;SDS011;11436;50.860;4.334;2022-10-31T01:16:27;21.67;;;7.93;;
22539;SDS011;11436;50.860;4.334;2022-10-31T01:18:54;13.98;;;7.55;;
22539;SDS011;11436;50.860;4.334;2022-10-31T01:21:21;17.15;;;7.97;;
22539;SDS011;11436;50.860;4.334;2022-10-31T01:23:49;19.35;;;7.07;;
22539;SDS011;11436;50.860;4.334;2022-10-31T01:28:44;15.15;;;6.88;;
22539;SDS011;11436;50.860;4.334;2022-10-31T01:31:15;15.30;;;6.85;;
22539;SDS011;11436;50.860;4.334;2022-10-31T01:33:42;10.98;;;6.47;;
22539;SDS011;11436;50.860;4.334;2022-10-31T01:36:24;15.15;;;6.60;;
22539;SDS011;11436;50.860;4.334;2022-10-31T01:38:52;15.32;;;7.10;;
22539;SDS011;11436;50.860;4.334;2022-10-31T01:41:21;15.65;;;7.28;;
22539;SDS011;11436;50.860;4.334;2022-10-31T01:46:23;16.17;;;7.15;;
22539;SDS011;11436;50.860;4.334;2022-10-31T01:48:52;17.67;;;7.30;;
22539;SDS011;11436;50.860;4.334;2022-10-31T01:51:20;11.57;;;6.90;;
22539;SDS011;11436;50.860;4.334;2022-10-31T01:53:50;17.52;;;7.40;;
22539;SDS011;11436;50.860;4.334;2022-10-31T01:56:20;14.75;;;7.20;;
22539;SDS011;11436;50.860;4.334;2022-10-31T01:58:47;15.88;;;7.40;;
22539;SDS011;11436;50.860;4.334;2022-10-31T02:01:13;15.30;;;6.82;;
22539;SDS011;11436;50.860;4.334;2022-10-31T02:03:41;14.07;;;6.85;;
22539;SDS011;11436;50.860;4.334;2022-10-31T02:06:08;15.13;;;6.85;;
22539;SDS011;11436;50.860;4.334;2022-10-31T02:08:46;15.20;;;7.63;;
22539;SDS011;11436;50.860;4.334;2022-10-31T02:11:11;17.35;;;7.40;;
22539;SDS011;11436;50.860;4.334;2022-10-31T02:13:37;17.73;;;7.85;;
22539;SDS011;11436;50.860;4.334;2022-10-31T02:16:04;19.45;;;7.35;;
22539;SDS011;11436;50.860;4.334;2022-10-31T02:18:29;15.00;;;7.80;;
22539;SDS011;11436;50.860;4.334;2022-10-31T02:21:15;13.05;;;7.55;;
22539;SDS011;11436;50.860;4.334;2022-10-31T02:34:52;15.65;;;7.68;;
22539;SDS011;11436;50.860;4.334;2022-10-31T02:37:44;13.93;;;7.97;;
22539;SDS011;11436;50.860;4.334;2022-10-31T02:40:26;14.90;;;7.65;;
22539;SDS011;11436;50.860;4.334;2022-10-31T02:45:29;16.52;;;8.25;;
22539;SDS011;11436;50.860;4.334;2022-10-31T02:48:20;14.13;;;7.18;;
22539;SDS011;11436;50.860;4.334;2022-10-31T02:51:00;14.85;;;8.00;;
22539;SDS011;11436;50.860;4.334;2022-10-31T02:53:32;16.13;;;8.05;;
22539;SDS011;11436;50.860;4.334;2022-10-31T02:56:00;25.20;;;8.13;;
22539;SDS011;11436;50.860;4.334;2022-10-31T02:58:32;15.52;;;8.05;;
22539;SDS011;11436;50.860;4.334;2022-10-31T03:06:54;16.98;;;8.00;;
22539;SDS011;11436;50.860;4.334;2022-10-31T03:09:38;17.33;;;8.30;;
22539;SDS011;11436;50.860;4.334;2022-10-31T03:12:29;18.48;;;8.05;;
22539;SDS011;11436;50.860;4.334;2022-10-31T03:18:10;18.33;;;8.73;;
22539;SDS011;11436;50.860;4.334;2022-10-31T03:20:52;19.23;;;9.43;;
22539;SDS011;11436;50.860;4.334;2022-10-31T03:23:23;19.25;;;8.93;;
22539;SDS011;11436;50.860;4.334;2022-10-31T03:25:51;20.02;;;8.40;;
22539;SDS011;11436;50.860;4.334;2022-10-31T03:28:21;16.77;;;9.10;;
22539;SDS011;11436;50.860;4.334;2022-10-31T03:30:51;16.67;;;9.00;;
22539;SDS011;11436;50.860;4.334;2022-10-31T03:33:20;21.35;;;9.40;;
22539;SDS011;11436;50.860;4.334;2022-10-31T03:35:50;23.70;;;9.77;;
22539;SDS011;11436;50.860;4.334;2022-10-31T03:38:20;17.73;;;8.18;;
22539;SDS011;11436;50.860;4.334;2022-10-31T03:40:47;19.73;;;8.32;;
22539;SDS011;11436;50.860;4.334;2022-10-31T03:43:16;16.98;;;8.88;;
22539;SDS011;11436;50.860;4.334;2022-10-31T03:45:47;17.50;;;8.65;;
22539;SDS011;11436;50.860;4.334;2022-10-31T03:48:13;15.60;;;9.05;;
22539;SDS011;11436;50.860;4.334;2022-10-31T03:53:25;18.60;;;9.35;;
22539;SDS011;11436;50.860;4.334;2022-10-31T03:56:14;17.48;;;8.82;;
22539;SDS011;11436;50.860;4.334;2022-10-31T03:58:48;17.00;;;8.95;;
22539;SDS011;11436;50.860;4.334;2022-10-31T04:01:25;19.35;;;9.48;;
22539;SDS011;11436;50.860;4.334;2022-10-31T04:03:53;17.40;;;9.07;;
22539;SDS011;11436;50.860;4.334;2022-10-31T04:06:20;15.77;;;8.80;;
22539;SDS011;11436;50.860;4.334;2022-10-31T04:08:51;16.67;;;9.95;;
22539;SDS011;11436;50.860;4.334;2022-10-31T04:11:21;19.20;;;9.77;;
22539;SDS011;11436;50.860;4.334;2022-10-31T04:13:51;31.08;;;10.02;;
22539;SDS011;11436;50.860;4.334;2022-10-31T04:16:18;20.05;;;9.13;;
22539;SDS011;11436;50.860;4.334;2022-10-31T04:18:45;17.75;;;9.73;;
22539;SDS011;11436;50.860;4.334;2022-10-31T04:21:12;18.23;;;9.68;;
22539;SDS011;11436;50.860;4.334;2022-10-31T04:23:38;22.00;;;9.63;;
22539;SDS011;11436;50.860;4.334;2022-10-31T04:26:04;23.33;;;9.77;;
22539;SDS011;11436;50.860;4.334;2022-10-31T04:28:29;16.15;;;9.00;;
22539;SDS011;11436;50.860;4.334;2022-10-31T04:30:57;18.23;;;9.70;;
22539;SDS011;11436;50.860;4.334;2022-10-31T04:33:23;19.45;;;9.15;;
22539;SDS011;11436;50.860;4.334;2022-10-31T04:35:49;18.77;;;9.60;;
22539;SDS011;11436;50.860;4.334;2022-10-31T04:38:14;21.35;;;10.00;;
22539;SDS011;11436;50.860;4.334;2022-10-31T04:40:40;20.27;;;10.00;;
22539;SDS011;11436;50.860;4.334;2022-10-31T04:43:06;18.27;;;9.85;;
22539;SDS011;11436;50.860;4.334;2022-10-31T04:45:32;20.55;;;10.27;;
22539;SDS011;11436;50.860;4.334;2022-10-31T04:47:57;18.20;;;9.55;;
22539;SDS011;11436;50.860;4.334;2022-10-31T04:50:23;16.73;;;9.38;;
22539;SDS011;11436;50.860;4.334;2022-10-31T04:52:49;18.00;;;9.32;;
22539;SDS011;11436;50.860;4.334;2022-10-31T04:55:14;17.15;;;10.52;;
22539;SDS011;11436;50.860;4.334;2022-10-31T04:57:44;20.70;;;9.63;;
22539;SDS011;11436;50.860;4.334;2022-10-31T05:00:12;19.88;;;10.95;;
22539;SDS011;11436;50.860;4.334;2022-10-31T05:02:45;19.10;;;10.57;;
22539;SDS011;11436;50.860;4.334;2022-10-31T05:05:12;20.77;;;9.93;;
22539;SDS011;11436;50.860;4.334;2022-10-31T05:07:43;19.50;;;10.55;;
22539;SDS011;11436;50.860;4.334;2022-10-31T05:10:13;16.42;;;10.52;;
22539;SDS011;11436;50.860;4.334;2022-10-31T05:12:56;20.05;;;10.73;;
22539;SDS011;11436;50.860;4.334;2022-10-31T05:15:26;22.00;;;10.15;;
22539;SDS011;11436;50.860;4.334;2022-10-31T05:17:53;17.77;;;10.25;;
22539;SDS011;11436;50.860;4.334;2022-10-31T05:20:20;16.90;;;9.38;;
22539;SDS011;11436;50.860;4.334;2022-10-31T05:22:48;17.58;;;10.13;;
22539;SDS011;11436;50.860;4.334;2022-10-31T05:25:16;22.88;;;9.63;;
22539;SDS011;11436;50.860;4.334;2022-10-31T05:27:43;18.52;;;9.85;;
22539;SDS011;11436;50.860;4.334;2022-10-31T05:30:11;16.58;;;9.82;;
22539;SDS011;11436;50.860;4.334;2022-10-31T05:32:39;30.92;;;10.00;;
22539;SDS011;11436;50.860;4.334;2022-10-31T05:35:10;20.85;;;10.20;;
22539;SDS011;11436;50.860;4.334;2022-10-31T05:37:37;23.48;;;9.77;;
22539;SDS011;11436;50.860;4.334;2022-10-31T05:40:04;17.70;;;9.80;;
22539;SDS011;11436;50.860;4.334;2022-10-31T05:42:31;24.20;;;10.15;;
22539;SDS011;11436;50.860;4.334;2022-10-31T05:44:57;21.75;;;9.35;;
22539;SDS011;11436;50.860;4.334;2022-10-31T05:47:23;18.17;;;10.80;;
22539;SDS011;11436;50.860;4.334;2022-10-31T05:49:48;26.48;;;14.35;;
22539;SDS011;11436;50.860;4.334;2022-10-31T05:52:14;19.92;;;10.35;;
22539;SDS011;11436;50.860;4.334;2022-10-31T05:54:40;29.05;;;13.40;;
22539;SDS011;11436;50.860;4.334;2022-10-31T05:57:06;20.27;;;10.98;;
22539;SDS011;11436;50.860;4.334;2022-10-31T05:59:32;26.70;;;9.98;;
22539;SDS011;11436;50.860;4.334;2022-10-31T06:01:57;20.42;;;10.70;;
22539;SDS011;11436;50.860;4.334;2022-10-31T06:04:23;19.92;;;9.43;;
22539;SDS011;11436;50.860;4.334;2022-10-31T06:06:49;24.70;;;9.30;;
22539;SDS011;11436;50.860;4.334;2022-10-31T06:09:15;20.02;;;9.32;;
22539;SDS011;11436;50.860;4.334;2022-10-31T06:11:40;16.30;;;9.90;;
22539;SDS011;11436;50.860;4.334;2022-10-31T06:14:06;21.95;;;10.00;;
22539;SDS011;11436;50.860;4.334;2022-10-31T06:16:32;16.73;;;9.82;;
22539;SDS011;11436;50.860;4.334;2022-10-31T06:18:58;24.63;;;9.70;;
22539;SDS011;11436;50.860;4.334;2022-10-31T06:21:23;13.25;;;8.73;;
22539;SDS011;11436;50.860;4.334;2022-10-31T06:23:49;22.65;;;9.13;;
22539;SDS011;11436;50.860;4.334;2022-10-31T06:26:15;21.25;;;10.73;;
22539;SDS011;11436;50.860;4.334;2022-10-31T06:28:41;21.88;;;9.32;;
22539;SDS011;11436;50.860;4.334;2022-10-31T06:31:07;17.60;;;9.30;;
22539;SDS011;11436;50.860;4.334;2022-10-31T06:33:33;16.20;;;9.05;;
22539;SDS011;11436;50.860;4.334;2022-10-31T06:35:59;16.30;;;9.27;;
22539;SDS011;11436;50.860;4.334;2022-10-31T06:38:26;15.57;;;9.50;;
22539;SDS011;11436;50.860;4.334;2022-10-31T06:40:52;18.02;;;9.73;;
22539;SDS011;11436;50.860;4.334;2022-10-31T06:43:20;20.08;;;9.52;;
22539;SDS011;11436;50.860;4.334;2022-10-31T06:45:46;22.58;;;9.98;;
22539;SDS011;11436;50.860;4.334;2022-10-31T06:48:12;17.15;;;9.40;;
22539;SDS011;11436;50.860;4.334;2022-10-31T06:50:38;28.75;;;9.55;;
22539;SDS011;11436;50.860;4.334;2022-10-31T06:53:04;19.73;;;9.30;;
22539;SDS011;11436;50.860;4.334;2022-10-31T06:55:29;20.55;;;9.65;;
22539;SDS011;11436;50.860;4.334;2022-10-31T06:57:57;18.88;;;9.32;;
22539;SDS011;11436;50.860;4.334;2022-10-31T07:00:25;16.55;;;9.45;;
22539;SDS011;11436;50.860;4.334;2022-10-31T07:02:59;16.77;;;9.55;;
22539;SDS011;11436;50.860;4.334;2022-10-31T07:05:26;13.32;;;9.05;;
22539;SDS011;11436;50.860;4.334;2022-10-31T07:07:53;24.48;;;10.02;;
22539;SDS011;11436;50.860;4.334;2022-10-31T07:10:20;18.75;;;9.68;;
22539;SDS011;11436;50.860;4.334;2022-10-31T07:12:46;18.60;;;9.38;;
22539;SDS011;11436;50.860;4.334;2022-10-31T07:15:12;22.77;;;9.98;;
22539;SDS011;11436;50.860;4.334;2022-10-31T07:17:39;18.02;;;9.77;;
22539;SDS011;11436;50.860;4.334;2022-10-31T07:20:05;23.75;;;10.23;;
22539;SDS011;11436;50.860;4.334;2022-10-31T07:22:32;20.75;;;10.02;;
22539;SDS011;11436;50.860;4.334;2022-10-31T07:24:58;16.63;;;9.90;;
22539;SDS011;11436;50.860;4.334;2022-10-31T07:27:24;21.90;;;12.13;;
22539;SDS011;11436;50.860;4.334;2022-10-31T07:29:50;20.55;;;10.32;;
22539;SDS011;11436;50.860;4.334;2022-10-31T07:32:15;23.92;;;10.13;;
22539;SDS011;11436;50.860;4.334;2022-10-31T07:34:41;21.52;;;9.52;;
22539;SDS011;11436;50.860;4.334;2022-10-31T07:37:07;21.90;;;9.90;;
22539;SDS011;11436;50.860;4.334;2022-10-31T07:39:32;20.73;;;9.45;;
22539;SDS011;11436;50.860;4.334;2022-10-31T07:41:58;15.68;;;9.00;;
22539;SDS011;11436;50.860;4.334;2022-10-31T07:44:24;15.98;;;9.20;;
22539;SDS011;11436;50.860;4.334;2022-10-31T07:46:50;19.45;;;8.93;;
22539;SDS011;11436;50.860;4.334;2022-10-31T07:49:16;17.35;;;9.18;;
22539;SDS011;11436;50.860;4.334;2022-10-31T07:51:41;42.33;;;10.85;;
22539;SDS011;11436;50.860;4.334;2022-10-31T07:54:07;30.33;;;16.75;;
22539;SDS011;11436;50.860;4.334;2022-10-31T07:56:33;16.20;;;8.93;;
22539;SDS011;11436;50.860;4.334;2022-10-31T07:58:59;26.15;;;13.93;;
22539;SDS011;11436;50.860;4.334;2022-10-31T08:01:24;16.77;;;9.85;;
22539;SDS011;11436;50.860;4.334;2022-10-31T08:03:50;16.48;;;8.75;;
22539;SDS011;11436;50.860;4.334;2022-10-31T08:06:16;15.18;;;9.45;;
22539;SDS011;11436;50.860;4.334;2022-10-31T08:08:41;16.95;;;8.95;;
22539;SDS011;11436;50.860;4.334;2022-10-31T08:11:07;20.60;;;9.05;;
22539;SDS011;11436;50.860;4.334;2022-10-31T08:13:33;15.23;;;8.43;;
22539;SDS011;11436;50.860;4.334;2022-10-31T08:15:59;17.75;;;8.07;;
22539;SDS011;11436;50.860;4.334;2022-10-31T08:18:29;15.77;;;7.88;;
22539;SDS011;11436;50.860;4.334;2022-10-31T08:20:55;13.10;;;7.93;;
22539;SDS011;11436;50.860;4.334;2022-10-31T08:23:20;13.18;;;7.18;;
22539;SDS011;11436;50.860;4.334;2022-10-31T08:25:46;13.77;;;7.53;;
22539;SDS011;11436;50.860;4.334;2022-10-31T08:28:13;15.68;;;8.32;;
22539;SDS011;11436;50.860;4.334;2022-10-31T08:30:40;14.95;;;8.45;;
22539;SDS011;11436;50.860;4.334;2022-10-31T08:33:08;15.45;;;8.80;;
22539;SDS011;11436;50.860;4.334;2022-10-31T08:35:39;15.32;;;8.18;;
22539;SDS011;11436;50.860;4.334;2022-10-31T08:38:05;14.77;;;8.20;;
22539;SDS011;11436;50.860;4.334;2022-10-31T08:40:33;13.30;;;8.48;;
22539;SDS011;11436;50.860;4.334;2022-10-31T08:43:01;16.13;;;8.07;;
22539;SDS011;11436;50.860;4.334;2022-10-31T08:45:32;16.75;;;8.20;;
22539;SDS011;11436;50.860;4.334;2022-10-31T08:47:59;12.93;;;9.18;;
22539;SDS011;11436;50.860;4.334;2022-10-31T08:50:26;17.20;;;9.10;;
22539;SDS011;11436;50.860;4.334;2022-10-31T08:52:53;16.90;;;7.90;;
22539;SDS011;11436;50.860;4.334;2022-10-31T08:55:24;15.98;;;8.10;;
22539;SDS011;11436;50.860;4.334;2022-10-31T08:57:54;16.95;;;7.85;;
22539;SDS011;11436;50.860;4.334;2022-10-31T09:00:21;13.07;;;8.63;;
22539;SDS011;11436;50.860;4.334;2022-10-31T09:02:46;16.83;;;8.43;;
22539;SDS011;11436;50.860;4.334;2022-10-31T09:05:12;16.13;;;9.48;;
22539;SDS011;11436;50.860;4.334;2022-10-31T09:07:38;14.77;;;8.95;;
22539;SDS011;11436;50.860;4.334;2022-10-31T09:10:04;14.18;;;9.73;;
22539;SDS011;11436;50.860;4.334;2022-10-31T09:12:30;21.38;;;10.80;;
22539;SDS011;11436;50.860;4.334;2022-10-31T09:14:55;15.80;;;8.00;;
22539;SDS011;11436;50.860;4.334;2022-10-31T09:17:21;14.50;;;7.72;;
22539;SDS011;11436;50.860;4.334;2022-10-31T09:19:47;14.73;;;7.25;;
22539;SDS011;11436;50.860;4.334;2022-10-31T09:22:13;16.45;;;6.78;;
22539;SDS011;11436;50.860;4.334;2022-10-31T09:24:39;8.93;;;5.55;;
22539;SDS011;11436;50.860;4.334;2022-10-31T09:27:05;10.63;;;5.78;;
22539;SDS011;11436;50.860;4.334;2022-10-31T09:29:30;12.50;;;6.30;;
22539;SDS011;11436;50.860;4.334;2022-10-31T09:31:56;10.75;;;6.07;;
22539;SDS011;11436;50.860;4.334;2022-10-31T09:34:22;10.50;;;5.35;;
22539;SDS011;11436;50.860;4.334;2022-10-31T09:36:48;10.93;;;5.50;;
22539;SDS011;11436;50.860;4.334;2022-10-31T09:39:14;17.67;;;6.05;;
22539;SDS011;11436;50.860;4.334;2022-10-31T09:52:28;9.55;;;5.57;;
22539;SDS011;11436;50.860;4.334;2022-10-31T09:54:59;12.30;;;6.20;;
22539;SDS011;11436;50.860;4.334;2022-10-31T09:57:43;10.82;;;5.32;;
22539;SDS011;11436;50.860;4.334;2022-10-31T10:00:14;13.32;;;6.28;;
22539;SDS011;11436;50.860;4.334;2022-10-31T10:05:36;13.65;;;5.53;;
22539;SDS011;11436;50.860;4.334;2022-10-31T10:08:20;13.65;;;5.40;;
22539;SDS011;11436;50.860;4.334;2022-10-31T10:11:07;12.32;;;5.43;;
22539;SDS011;11436;50.860;4.334;2022-10-31T10:22:14;20.00;;;6.30;;
22539;SDS011;11436;50.860;4.334;2022-10-31T10:30:16;8.87;;;5.80;;
22539;SDS011;11436;50.860;4.334;2022-10-31T10:35:29;10.63;;;6.13;;
22539;SDS011;11436;50.860;4.334;2022-10-31T10:38:02;11.95;;;6.38;;
22539;SDS011;11436;50.860;4.334;2022-10-31T10:43:22;12.73;;;6.97;;
22539;SDS011;11436;50.860;4.334;2022-10-31T10:46:20;17.67;;;8.13;;
22539;SDS011;11436;50.860;4.334;2022-10-31T10:52:07;16.80;;;7.68;;
22539;SDS011;11436;50.860;4.334;2022-10-31T10:59:55;13.23;;;7.15;;
22539;SDS011;11436;50.860;4.334;2022-10-31T11:02:26;15.10;;;7.35;;
22539;SDS011;11436;50.860;4.334;2022-10-31T11:04:56;15.82;;;7.18;;
22539;SDS011;11436;50.860;4.334;2022-10-31T11:07:23;17.52;;;7.88;;
22539;SDS011;11436;50.860;4.334;2022-10-31T11:09:49;17.75;;;7.60;;
22539;SDS011;11436;50.860;4.334;2022-10-31T11:12:26;18.45;;;8.43;;
22539;SDS011;11436;50.860;4.334;2022-10-31T11:15:02;14.20;;;7.55;;
22539;SDS011;11436;50.860;4.334;2022-10-31T11:17:34;14.90;;;7.15;;
22539;SDS011;11436;50.860;4.334;2022-10-31T11:20:04;14.48;;;7.45;;
22539;SDS011;11436;50.860;4.334;2022-10-31T11:22:36;21.42;;;7.97;;
22539;SDS011;11436;50.860;4.334;2022-10-31T11:25:22;19.55;;;8.30;;
22539;SDS011;11436;50.860;4.334;2022-10-31T11:27:58;16.33;;;7.90;;
22539;SDS011;11436;50.860;4.334;2022-10-31T11:30:29;18.80;;;7.45;;
22539;SDS011;11436;50.860;4.334;2022-10-31T11:32:56;19.67;;;7.45;;
22539;SDS011;11436;50.860;4.334;2022-10-31T11:35:22;14.43;;;7.35;;
22539;SDS011;11436;50.860;4.334;2022-10-31T11:37:49;15.27;;;7.22;;
22539;SDS011;11436;50.860;4.334;2022-10-31T11:40:22;19.83;;;7.75;;
22539;SDS011;11436;50.860;4.334;2022-10-31T11:42:52;13.65;;;7.55;;
22539;SDS011;11436;50.860;4.334;2022-10-31T11:45:33;19.73;;;7.78;;
22539;SDS011;11436;50.860;4.334;2022-10-31T11:48:02;18.42;;;7.57;;
22539;SDS011;11436;50.860;4.334;2022-10-31T11:50:40;16.52;;;6.95;;
22539;SDS011;11436;50.860;4.334;2022-10-31T11:53:15;16.35;;;6.70;;
22539;SDS011;11436;50.860;4.334;2022-10-31T11:55:42;17.85;;;6.75;;
22539;SDS011;11436;50.860;4.334;2022-10-31T11:58:23;15.63;;;6.47;;
22539;SDS011;11436;50.860;4.334;2022-10-31T12:00:51;17.73;;;7.28;;
22539;SDS011;11436;50.860;4.334;2022-10-31T12:08:38;15.95;;;7.15;;
22539;SDS011;11436;50.860;4.334;2022-10-31T12:11:11;16.52;;;7.75;;
22539;SDS011;11436;50.860;4.334;2022-10-31T12:16:26;17.77;;;8.27;;
22539;SDS011;11436;50.860;4.334;2022-10-31T12:19:22;23.23;;;7.80;;
22539;SDS011;11436;50.860;4.334;2022-10-31T12:22:04;16.92;;;7.90;;
22539;SDS011;11436;50.860;4.334;2022-10-31T12:32:23;20.77;;;7.33;;
22539;SDS011;11436;50.860;4.334;2022-10-31T12:45:57;12.25;;;6.65;;
22539;SDS011;11436;50.860;4.334;2022-10-31T12:48:38;14.20;;;6.60;;
22539;SDS011;11436;50.860;4.334;2022-10-31T12:51:22;18.10;;;7.45;;
22539;SDS011;11436;50.860;4.334;2022-10-31T13:02:18;18.08;;;5.65;;
22539;SDS011;11436;50.860;4.334;2022-10-31T13:04:55;12.75;;;5.72;;
22539;SDS011;11436;50.860;4.334;2022-10-31T13:07:48;19.17;;;5.97;;
22539;SDS011;11436;50.860;4.334;2022-10-31T13:10:22;16.83;;;5.93;;
22539;SDS011;11436;50.860;4.334;2022-10-31T13:13:10;14.30;;;6.63;;
22539;SDS011;11436;50.860;4.334;2022-10-31T13:15:49;14.57;;;5.13;;
22539;SDS011;11436;50.860;4.334;2022-10-31T13:18:22;17.15;;;5.85;;
22539;SDS011;11436;50.860;4.334;2022-10-31T13:21:08;15.48;;;7.10;;
22539;SDS011;11436;50.860;4.334;2022-10-31T13:23:40;18.98;;;6.65;;
22539;SDS011;11436;50.860;4.334;2022-10-31T13:26:16;25.83;;;5.55;;
22539;SDS011;11436;50.860;4.334;2022-10-31T13:28:59;15.05;;;5.07;;
22539;SDS011;11436;50.860;4.334;2022-10-31T13:31:38;19.50;;;5.43;;
22539;SDS011;11436;50.860;4.334;2022-10-31T13:34:08;14.18;;;4.70;;
22539;SDS011;11436;50.860;4.334;2022-10-31T13:39:52;12.88;;;4.90;;
22539;SDS011;11436;50.860;4.334;2022-10-31T13:45:19;13.63;;;5.45;;
22539;SDS011;11436;50.860;4.334;2022-10-31T13:48:00;18.35;;;5.07;;
22539;SDS011;11436;50.860;4.334;2022-10-31T13:50:42;19.83;;;5.93;;
22539;SDS011;11436;50.860;4.334;2022-10-31T13:53:21;13.45;;;5.50;;
22539;SDS011;11436;50.860;4.334;2022-10-31T13:55:48;13.40;;;5.47;;
22539;SDS011;11436;50.860;4.334;2022-10-31T13:58:31;14.65;;;5.38;;
22539;SDS011;11436;50.860;4.334;2022-10-31T14:03:39;19.92;;;6.85;;
22539;SDS011;11436;50.860;4.334;2022-10-31T14:06:07;11.40;;;6.22;;
22539;SDS011;11436;50.860;4.334;2022-10-31T14:08:34;16.38;;;6.07;;
22539;SDS011;11436;50.860;4.334;2022-10-31T14:11:03;14.75;;;5.90;;
22539;SDS011;11436;50.860;4.334;2022-10-31T14:13:33;16.23;;;5.80;;
22539;SDS011;11436;50.860;4.334;2022-10-31T14:16:04;12.35;;;5.75;;
22539;SDS011;11436;50.860;4.334;2022-10-31T14:18:42;17.83;;;6.28;;
22539;SDS011;11436;50.860;4.334;2022-10-31T14:23:53;15.00;;;5.20;;
22539;SDS011;11436;50.860;4.334;2022-10-31T14:28:57;15.43;;;4.95;;
22539;SDS011;11436;50.860;4.334;2022-10-31T14:34:22;15.02;;;5.28;;
22539;SDS011;11436;50.860;4.334;2022-10-31T14:37:08;14.98;;;4.60;;
22539;SDS011;11436;50.860;4.334;2022-10-31T14:43:03;15.48;;;4.55;;
22539;SDS011;11436;50.860;4.334;2022-10-31T14:48:50;10.65;;;5.15;;
22539;SDS011;11436;50.860;4.334;2022-10-31T14:51:52;16.25;;;4.68;;
22539;SDS011;11436;50.860;4.334;2022-10-31T14:54:19;15.07;;;4.63;;
22539;SDS011;11436;50.860;4.334;2022-10-31T14:57:06;17.52;;;4.30;;
22539;SDS011;11436;50.860;4.334;2022-10-31T14:59:51;15.38;;;4.78;;
22539;SDS011;11436;50.860;4.334;2022-10-31T15:02:24;12.70;;;4.50;;
22539;SDS011;11436;50.860;4.334;2022-10-31T15:05:22;13.63;;;4.22;;
22539;SDS011;11436;50.860;4.334;2022-10-31T15:07:51;16.17;;;4.30;;
22539;SDS011;11436;50.860;4.334;2022-10-31T15:10:22;13.43;;;4.90;;
22539;SDS011;11436;50.860;4.334;2022-10-31T15:12:50;21.80;;;5.47;;
22539;SDS011;11436;50.860;4.334;2022-10-31T15:15:18;13.07;;;4.70;;
22539;SDS011;11436;50.860;4.334;2022-10-31T15:17:48;14.45;;;4.70;;
22539;SDS011;11436;50.860;4.334;2022-10-31T15:22:45;19.20;;;6.00;;
22539;SDS011;11436;50.860;4.334;2022-10-31T15:25:20;16.02;;;5.07;;
22539;SDS011;11436;50.860;4.334;2022-10-31T15:27:48;20.77;;;5.50;;
22539;SDS011;11436;50.860;4.334;2022-10-31T15:30:22;22.88;;;6.07;;
22539;SDS011;11436;50.860;4.334;2022-10-31T15:32:50;18.80;;;5.90;;
22539;SDS011;11436;50.860;4.334;2022-10-31T15:35:23;31.42;;;20.23;;
22539;SDS011;11436;50.860;4.334;2022-10-31T15:37:53;16.35;;;7.05;;
22539;SDS011;11436;50.860;4.334;2022-10-31T15:40:20;23.67;;;6.20;;
22539;SDS011;11436;50.860;4.334;2022-10-31T15:45:21;17.60;;;5.75;;
22539;SDS011;11436;50.860;4.334;2022-10-31T15:47:55;21.83;;;6.07;;
22539;SDS011;11436;50.860;4.334;2022-10-31T15:50:44;17.27;;;6.50;;
22539;SDS011;11436;50.860;4.334;2022-10-31T15:53:21;15.23;;;7.03;;
22539;SDS011;11436;50.860;4.334;2022-10-31T15:56:08;19.92;;;6.85;;
22539;SDS011;11436;50.860;4.334;2022-10-31T15:58:44;30.52;;;7.75;;
22539;SDS011;11436;50.860;4.334;2022-10-31T16:01:53;23.83;;;8.80;;
22539;SDS011;11436;50.860;4.334;2022-10-31T16:06:35;22.35;;;7.05;;
22539;SDS011;11436;50.860;4.334;2022-10-31T16:09:02;23.33;;;7.60;;
22539;SDS011;11436;50.860;4.334;2022-10-31T16:16:45;22.75;;;7.78;;
22539;SDS011;11436;50.860;4.334;2022-10-31T16:19:27;16.73;;;7.93;;
22539;SDS011;11436;50.860;4.334;2022-10-31T16:22:13;18.90;;;7.85;;
22539;SDS011;11436;50.860;4.334;2022-10-31T16:24:45;32.55;;;7.97;;
22539;SDS011;11436;50.860;4.334;2022-10-31T16:27:21;20.88;;;8.27;;
22539;SDS011;11436;50.860;4.334;2022-10-31T16:29:50;26.48;;;8.20;;
22539;SDS011;11436;50.860;4.334;2022-10-31T16:32:31;20.08;;;8.07;;
22539;SDS011;11436;50.860;4.334;2022-10-31T16:35:00;23.92;;;9.13;;
22539;SDS011;11436;50.860;4.334;2022-10-31T16:37:26;18.20;;;8.30;;
22539;SDS011;11436;50.860;4.334;2022-10-31T16:39:52;21.55;;;9.38;;
22539;SDS011;11436;50.860;4.334;2022-10-31T16:42:18;19.33;;;9.30;;
22539;SDS011;11436;50.860;4.334;2022-10-31T16:44:44;22.70;;;8.40;;
22539;SDS011;11436;50.860;4.334;2022-10-31T16:47:13;25.58;;;9.30;;
22539;SDS011;11436;50.860;4.334;2022-10-31T16:49:40;20.80;;;9.13;;
22539;SDS011;11436;50.860;4.334;2022-10-31T16:52:07;25.25;;;10.40;;
22539;SDS011;11436;50.860;4.334;2022-10-31T16:54:33;22.70;;;9.63;;
22539;SDS011;11436;50.860;4.334;2022-10-31T16:56:59;18.60;;;9.50;;
22539;SDS011;11436;50.860;4.334;2022-10-31T16:59:26;23.52;;;10.48;;
22539;SDS011;11436;50.860;4.334;2022-10-31T17:01:52;30.13;;;8.90;;
22539;SDS011;11436;50.860;4.334;2022-10-31T17:04:19;15.38;;;7.13;;
22539;SDS011;11436;50.860;4.334;2022-10-31T17:06:44;17.17;;;6.90;;
22539;SDS011;11436;50.860;4.334;2022-10-31T17:09:10;15.45;;;6.30;;
22539;SDS011;11436;50.860;4.334;2022-10-31T17:11:36;12.63;;;5.50;;
22539;SDS011;11436;50.860;4.334;2022-10-31T17:14:09;17.48;;;5.65;;